Decoded Metar for PALP (NUIQSUT VILLAGE in AK, USA) (IATA:N/A) | Meteo·Mobile Aviation Weather
aviador You're here:

PALP Decoded Metar

NUIQSUT VILLAGE in AK, USA
Report Time2019-03-20 23:55:00
UTC Time2019-03-21 01:15:41
Flight Rules Old
Wind070° at 08 kt
W.Decomp.*RWY 03: 7.6 kt HW 2.6 kt RCW
W.Rank070° ranks 3
Current wind is below 070° avg. (13.9)
Visibility9999 m
Phenomena:N/A
Clouds:Few 025 Hf
Scattered 200 Hf
Expected CloudBase > 2,400 ft AGL from Temp-Dew spread
CeilingNone
Temp-19°C (ISA -34)
Dew Point-25°C (59% RH)
AAT-25.6°C
QNH1019 hPa
Density Alt-4,521 ft
Elevation16 ft
Report Wrong Elevation
Raw Report
PALP 202355Z 07008KT 15SM FEW025 SCT200 M19/M25 A3008=

Extra information for PALP:More info

Metar Taf Metar & Taf Last 4 Metars F.Rules Stats Wind Profile Meteogram Temp Stats Airport Information Weather charts Add Link Nearby VenuesMetar ALERT Operation Metar Decoded Social comments

AIRNAV info for PALP